Time;durP1;ratioP1;P1;durP2;ratioP2;P2;SDS_P1;SDS_P2;PMS_P1;PMS_P2;Temp;Humidity;BMP_temperature;BMP_pressure;BME280_temperature;BME280_humidity;BME280_pressure;Samples;Min_cycle;Max_cycle;Signal;HPM_P1;HPM_P2
2021/06/29 00:00:48;;;;;;;77.20;41.50;;;;;;;-145.50;100.00;65435.88;4883994;29;20131;-49
2021/06/29 00:03:16;;;;;;;77.07;42.33;;;;;;;-145.50;100.00;65435.88;4888505;29;20057;-48
2021/06/29 00:05:43;;;;;;;77.13;44.45;;;;;;;-145.50;100.00;65435.88;4881445;29;20132;-46
2021/06/29 00:08:09;;;;;;;74.63;42.03;;;;;;;-145.50;100.00;65435.88;4868910;29;20139;-47
2021/06/29 00:11:35;;;;;;;70.68;42.03;;;;;;;-145.50;100.00;65435.88;4884887;29;20072;-47
2021/06/29 00:14:02;;;;;;;73.18;43.85;;;;;;;-145.50;100.00;65435.88;4885714;29;20491;-47
2021/06/29 00:16:28;;;;;;;73.38;43.63;;;;;;;-145.50;100.00;65435.88;4884623;29;20127;-47
2021/06/29 00:18:54;;;;;;;76.47;44.47;;;;;;;-145.50;100.00;65435.88;4872943;29;20512;-47
2021/06/29 00:21:21;;;;;;;80.75;46.28;;;;;;;-145.50;100.00;65435.88;4874012;29;20478;-47
2021/06/29 00:23:47;;;;;;;77.70;45.95;;;;;;;-145.50;100.00;65435.88;4869378;29;20173;-47
2021/06/29 00:26:15;;;;;;;85.60;47.25;;;;;;;-145.50;100.00;65435.88;4871488;29;20497;-47
2021/06/29 00:28:41;;;;;;;86.40;49.25;;;;;;;-145.50;100.00;65435.88;4878273;29;20088;-47
2021/06/29 00:31:07;;;;;;;83.20;46.72;;;;;;;-145.50;100.00;65435.88;4869179;29;20484;-48
2021/06/29 00:33:34;;;;;;;89.85;47.38;;;;;;;-145.50;100.00;65435.88;4874775;29;20545;-47
2021/06/29 00:36:04;;;;;;;85.22;45.83;;;;;;;-145.50;100.00;65435.88;4870671;29;20519;-48
2021/06/29 00:38:30;;;;;;;82.25;44.30;;;;;;;-145.50;100.00;65435.88;4873400;29;20147;-48
2021/06/29 00:40:58;;;;;;;81.65;47.03;;;;;;;-145.50;100.00;65435.88;4868487;29;20393;-48
2021/06/29 00:43:24;;;;;;;83.07;46.22;;;;;;;-145.50;100.00;65435.88;4877429;29;20069;-47
2021/06/29 00:45:51;;;;;;;84.28;45.22;;;;;;;-145.50;100.00;65435.88;4879103;29;20144;-48
2021/06/29 00:48:17;;;;;;;87.68;47.63;;;;;;;-145.50;100.00;65435.88;4862977;29;20077;-48
2021/06/29 00:50:44;;;;;;;89.88;47.88;;;;;;;-145.50;100.00;65435.88;4877617;29;20151;-48
2021/06/29 00:53:12;;;;;;;82.68;47.35;;;;;;;-145.50;100.00;65435.88;4871713;29;20140;-49
2021/06/29 00:55:38;;;;;;;85.18;45.22;;;;;;;-145.50;100.00;65435.88;4876866;29;20563;-49
2021/06/29 00:58:09;;;;;;;78.55;43.60;;;;;;;-145.50;100.00;65435.88;4884901;29;20144;-47
2021/06/29 01:00:37;;;;;;;83.65;46.17;;;;;;;-145.50;100.00;65435.88;4887278;29;20167;-46
2021/06/29 01:03:04;;;;;;;82.13;44.55;;;;;;;-145.50;100.00;65435.88;4886031;29;20552;-49
2021/06/29 01:05:31;;;;;;;87.10;44.70;;;;;;;-145.50;100.00;65435.88;4874435;29;20148;-47
2021/06/29 01:07:57;;;;;;;86.00;43.30;;;;;;;-145.50;100.00;65435.88;4882690;29;20057;-48
2021/06/29 01:10:25;;;;;;;84.95;45.85;;;;;;;-145.50;100.00;65435.88;4880794;29;20147;-47
2021/06/29 01:12:51;;;;;;;86.78;43.28;;;;;;;-145.50;100.00;65435.88;4882352;29;20140;-48
2021/06/29 01:15:23;;;;;;;88.22;45.67;;;;;;;-145.50;100.00;65435.88;4879407;29;20052;-47
2021/06/29 01:17:51;;;;;;;86.60;46.00;;;;;;;-145.50;100.00;65435.88;4880258;29;20084;-49
2021/06/29 01:20:23;;;;;;;86.20;43.80;;;;;;;-145.50;100.00;65435.88;4887058;29;20049;-48
2021/06/29 01:22:53;;;;;;;91.70;45.13;;;;;;;-145.50;100.00;65435.88;4887582;29;20139;-49
2021/06/29 01:25:20;;;;;;;88.78;45.42;;;;;;;-145.50;100.00;65435.88;4887654;29;20151;-49
2021/06/29 01:28:33;;;;;;;91.43;45.92;;;;;;;-145.50;100.00;65435.88;4885101;29;20517;-49
2021/06/29 01:33:22;;;;;;;90.32;46.55;;;;;;;-145.50;100.00;65435.88;4883246;29;20066;-47
2021/06/29 01:35:49;;;;;;;87.22;44.38;;;;;;;-145.50;100.00;65435.88;4887269;29;20143;-47
2021/06/29 01:38:20;;;;;;;91.95;46.53;;;;;;;-145.50;100.00;65435.88;4882312;29;20101;-48
2021/06/29 01:40:47;;;;;;;95.30;47.80;;;;;;;-145.50;100.00;65435.88;4887747;29;20099;-47
2021/06/29 01:43:15;;;;;;;93.47;46.08;;;;;;;-145.50;100.00;65435.88;4880864;29;20136;-47
2021/06/29 01:45:45;;;;;;;93.03;44.35;;;;;;;-145.50;100.00;65435.88;4867447;29;20091;-49
2021/06/29 01:48:21;;;;;;;89.75;45.22;;;;;;;-145.50;100.00;65435.88;4890208;29;20068;-49
2021/06/29 01:51:07;;;;;;;93.80;44.70;;;;;;;-145.50;100.00;65435.88;4868068;29;20120;-48
2021/06/29 01:53:34;;;;;;;90.93;43.92;;;;;;;-145.50;100.00;65435.88;4889465;29;20060;-49
2021/06/29 01:56:00;;;;;;;92.93;44.78;;;;;;;-145.50;100.00;65435.88;4879720;29;20219;-48
2021/06/29 01:58:28;;;;;;;78.18;40.95;;;;;;;-145.50;100.00;65435.88;4881048;29;20057;-48
2021/06/29 02:00:55;;;;;;;85.65;42.13;;;;;;;-145.50;100.00;65435.88;4883584;29;20099;-47
2021/06/29 02:03:21;;;;;;;95.30;43.35;;;;;;;-145.50;100.00;65435.88;4890709;29;20147;-49
2021/06/29 02:05:48;;;;;;;89.90;43.17;;;;;;;-145.50;100.00;65435.88;4877153;29;20483;-49
2021/06/29 02:08:15;;;;;;;99.05;42.53;;;;;;;-145.50;100.00;65435.88;4892035;29;20139;-49
2021/06/29 02:10:41;;;;;;;100.88;41.65;;;;;;;-145.50;100.00;65435.88;4886252;29;20175;-48
2021/06/29 02:13:08;;;;;;;96.93;41.90;;;;;;;-145.50;100.00;65435.88;4891387;29;20139;-49
2021/06/29 02:15:36;;;;;;;103.50;43.60;;;;;;;-145.50;100.00;65435.88;4899116;29;20108;-48
2021/06/29 02:18:03;;;;;;;96.30;41.63;;;;;;;-145.50;100.00;65435.88;4883105;29;20144;-48
2021/06/29 02:20:30;;;;;;;90.05;41.22;;;;;;;-145.50;100.00;65435.88;4873182;29;20136;-48
2021/06/29 02:22:56;;;;;;;94.20;42.60;;;;;;;-145.50;100.00;65435.88;4882345;29;20147;-47
2021/06/29 02:25:23;;;;;;;93.38;41.03;;;;;;;-145.50;100.00;65435.88;4883424;29;20147;-46
2021/06/29 02:27:50;;;;;;;93.47;42.97;;;;;;;-145.50;100.00;65435.88;4875868;29;20132;-48
2021/06/29 02:30:17;;;;;;;85.40;38.97;;;;;;;-145.50;100.00;65435.88;4876478;29;20163;-48
2021/06/29 02:32:43;;;;;;;85.38;38.35;;;;;;;-145.50;100.00;65435.88;4889044;29;20159;-47
2021/06/29 02:35:10;;;;;;;92.22;42.17;;;;;;;-145.50;100.00;65435.88;4882744;29;20080;-48
2021/06/29 02:37:37;;;;;;;96.35;40.85;;;;;;;-145.50;100.00;65435.88;4879453;29;20147;-47
2021/06/29 02:40:06;;;;;;;97.20;41.15;;;;;;;-145.50;100.00;65435.88;4873487;29;20099;-46
2021/06/29 02:42:33;;;;;;;84.88;39.85;;;;;;;-145.50;100.00;65435.88;4899400;29;20147;-47
2021/06/29 02:45:05;;;;;;;90.05;39.88;;;;;;;-145.50;100.00;65435.88;4882307;29;20066;-47
2021/06/29 02:47:35;;;;;;;97.10;42.10;;;;;;;-145.50;100.00;65435.88;4888942;29;20092;-47
2021/06/29 02:50:03;;;;;;;86.60;38.92;;;;;;;-145.50;100.00;65435.88;4889135;29;20096;-48
2021/06/29 02:52:30;;;;;;;73.85;35.97;;;;;;;-145.50;100.00;65435.88;4889306;29;20671;-47
2021/06/29 02:54:56;;;;;;;66.82;35.40;;;;;;;-145.50;100.00;65435.88;4896399;29;20098;-48
2021/06/29 02:57:23;;;;;;;67.72;34.08;;;;;;;-145.50;100.00;65435.88;4882516;29;20143;-47
2021/06/29 02:59:49;;;;;;;75.43;35.15;;;;;;;-145.50;100.00;65435.88;4871672;29;20144;-46
2021/06/29 03:02:16;;;;;;;64.22;34.10;;;;;;;-145.50;100.00;65435.88;4880968;29;20151;-48
2021/06/29 03:04:42;;;;;;;70.70;36.40;;;;;;;-145.50;100.00;65435.88;4885335;29;20088;-47
2021/06/29 03:07:09;;;;;;;71.97;35.80;;;;;;;-145.50;100.00;65435.88;4882725;29;20600;-46
2021/06/29 03:09:35;;;;;;;67.18;36.00;;;;;;;-145.50;100.00;65435.88;4861771;29;20477;-47
2021/06/29 03:12:02;;;;;;;72.55;36.08;;;;;;;-145.50;100.00;65435.88;4886298;29;20540;-47
2021/06/29 03:14:29;;;;;;;63.75;35.50;;;;;;;-145.50;100.00;65435.88;4892446;29;21137;-47
2021/06/29 03:16:55;;;;;;;68.55;35.38;;;;;;;-145.50;100.00;65435.88;4885376;29;20058;-51
2021/06/29 03:19:21;;;;;;;65.70;36.92;;;;;;;-145.50;100.00;65435.88;4876034;29;20427;-48
2021/06/29 03:21:48;;;;;;;66.63;35.08;;;;;;;-145.50;100.00;65435.88;4886460;29;20140;-47
2021/06/29 03:24:14;;;;;;;68.80;35.97;;;;;;;-145.50;100.00;65435.88;4885495;29;20147;-47
2021/06/29 03:26:41;;;;;;;77.90;37.63;;;;;;;-145.50;100.00;65435.88;4881135;29;20135;-48
2021/06/29 03:29:07;;;;;;;74.82;38.13;;;;;;;-145.50;100.00;65435.88;4886760;29;20060;-47
2021/06/29 03:31:34;;;;;;;75.13;40.28;;;;;;;-145.50;100.00;65435.88;4860482;29;20148;-47
2021/06/29 03:34:01;;;;;;;80.68;41.22;;;;;;;-145.50;100.00;65435.88;4884613;29;20088;-48
2021/06/29 03:36:29;;;;;;;87.65;40.97;;;;;;;-145.50;100.00;65435.88;4874637;29;20060;-46
2021/06/29 03:38:57;;;;;;;77.40;38.85;;;;;;;-145.50;100.00;65435.88;4886778;29;20056;-49
2021/06/29 03:41:24;;;;;;;80.30;40.20;;;;;;;-145.50;100.00;65435.88;4879627;29;20052;-50
2021/06/29 03:43:51;;;;;;;80.70;39.97;;;;;;;-145.50;100.00;65435.88;4885472;29;20056;-49
2021/06/29 03:46:19;;;;;;;76.68;38.67;;;;;;;-145.50;100.00;65435.88;4888479;29;20052;-48
2021/06/29 03:48:46;;;;;;;81.30;39.80;;;;;;;-145.50;100.00;65435.88;4876393;29;20158;-50
2021/06/29 03:51:13;;;;;;;71.53;36.28;;;;;;;-145.50;100.00;65435.88;4872746;29;20056;-48
2021/06/29 03:53:40;;;;;;;74.80;39.30;;;;;;;-145.50;100.00;65435.88;4882490;29;20425;-48
2021/06/29 03:58:56;;;;;;;84.22;41.33;;;;;;;-145.50;100.00;65435.88;4882058;29;20056;-47
2021/06/29 04:01:24;;;;;;;72.55;39.50;;;;;;;-145.50;100.00;65435.88;4881382;29;20108;-47
2021/06/29 04:03:55;;;;;;;86.90;41.83;;;;;;;-145.50;100.00;65435.88;4870444;29;20056;-49
2021/06/29 04:06:37;;;;;;;76.25;38.83;;;;;;;-145.50;100.00;65435.88;4884413;29;20044;-48
2021/06/29 04:09:06;;;;;;;76.35;38.22;;;;;;;-145.50;100.00;65435.88;4876280;29;20053;-50
2021/06/29 04:11:33;;;;;;;72.35;38.00;;;;;;;-145.50;100.00;65435.88;4884049;29;20083;-49
2021/06/29 04:14:00;;;;;;;81.80;39.25;;;;;;;-145.50;100.00;65435.88;4889013;29;20052;-48
2021/06/29 04:16:27;;;;;;;80.73;40.70;;;;;;;-145.50;100.00;65435.88;4877458;29;20053;-48
2021/06/29 04:18:54;;;;;;;84.78;41.78;;;;;;;-145.50;100.00;65435.88;4876821;29;20072;-48
2021/06/29 04:21:23;;;;;;;83.03;40.78;;;;;;;-145.50;100.00;65435.88;4873002;29;20049;-49
2021/06/29 04:23:50;;;;;;;75.85;41.00;;;;;;;-145.50;100.00;65435.88;4893054;29;20053;-48
2021/06/29 04:26:17;;;;;;;69.78;37.78;;;;;;;-145.50;100.00;65435.88;4877922;29;20143;-48
2021/06/29 04:28:45;;;;;;;84.45;41.88;;;;;;;-145.50;100.00;65435.88;4892828;29;20445;-47
2021/06/29 04:31:12;;;;;;;81.53;40.22;;;;;;;-145.50;100.00;65435.88;4876577;29;20061;-49
2021/06/29 04:33:40;;;;;;;73.20;38.80;;;;;;;-145.50;100.00;65435.88;4880750;29;20061;-48
2021/06/29 04:36:07;;;;;;;78.77;41.23;;;;;;;-145.50;100.00;65435.88;4872191;29;20053;-49
2021/06/29 04:38:34;;;;;;;76.53;39.03;;;;;;;-145.50;100.00;65435.88;4879427;29;20488;-49
2021/06/29 04:41:02;;;;;;;76.25;39.33;;;;;;;-145.50;100.00;65435.88;4886566;29;20064;-48
2021/06/29 04:43:29;;;;;;;73.45;40.03;;;;;;;-145.50;100.00;65435.88;4879010;29;20080;-49
2021/06/29 04:45:57;;;;;;;75.93;39.83;;;;;;;-145.50;100.00;65435.88;4873900;29;20751;-48
2021/06/29 04:48:24;;;;;;;78.65;41.15;;;;;;;-145.50;100.00;65435.88;4870481;29;20087;-48
2021/06/29 04:50:51;;;;;;;89.00;42.17;;;;;;;-145.50;100.00;65435.88;4878124;29;20056;-48
2021/06/29 04:53:18;;;;;;;72.20;38.60;;;;;;;-145.50;100.00;65435.88;4899961;29;20558;-49
2021/06/29 04:55:45;;;;;;;72.63;38.03;;;;;;;-145.50;100.00;65435.88;4885713;29;20405;-49
2021/06/29 04:58:12;;;;;;;76.15;39.03;;;;;;;-145.50;100.00;65435.88;4874803;29;20060;-48
2021/06/29 05:00:44;;;;;;;83.20;40.47;;;;;;;-145.50;100.00;65435.88;4874671;29;20498;-48
2021/06/29 05:03:12;;;;;;;75.95;39.60;;;;;;;-145.50;100.00;65435.88;4880100;29;20708;-48
2021/06/29 05:05:39;;;;;;;;;;;;;;;-145.50;100.00;65435.88;4872037;29;20147;-48
2021/06/29 05:08:07;;;;;;;72.32;36.55;;;;;;;-145.50;100.00;65435.88;4877827;29;19967;-49
2021/06/29 05:10:34;;;;;;;75.68;39.20;;;;;;;-145.50;100.00;65435.88;4873279;29;20153;-49
2021/06/29 05:13:01;;;;;;;80.67;40.27;;;;;;;-145.50;100.00;65435.88;4883679;29;20582;-48
2021/06/29 05:15:27;;;;;;;78.50;40.70;;;;;;;-145.50;100.00;65435.88;4889052;29;20049;-49
2021/06/29 05:17:55;;;;;;;81.00;41.78;;;;;;;-145.50;100.00;65435.88;4886324;29;20495;-50
2021/06/29 05:20:21;;;;;;;77.32;40.00;;;;;;;-145.50;100.00;65435.88;4895849;29;20139;-48
2021/06/29 05:22:48;;;;;;;71.68;37.53;;;;;;;-145.50;100.00;65435.88;4872353;29;20091;-48
2021/06/29 05:25:14;;;;;;;80.95;40.13;;;;;;;-145.50;100.00;65435.88;4871732;29;20147;-48
2021/06/29 05:27:42;;;;;;;84.90;41.25;;;;;;;-145.50;100.00;65435.88;4872624;29;20080;-49
2021/06/29 05:30:10;;;;;;;88.25;43.90;;;;;;;-145.50;100.00;65435.88;4869608;29;20049;-52
2021/06/29 05:32:36;;;;;;;88.03;41.58;;;;;;;-145.50;100.00;65435.88;4876153;29;20144;-51
2021/06/29 05:35:03;;;;;;;77.30;38.53;;;;;;;-145.50;100.00;65435.88;4874561;29;20098;-49
2021/06/29 05:37:30;;;;;;;74.80;40.08;;;;;;;-145.50;100.00;65435.88;4875903;29;20148;-52
2021/06/29 05:39:56;;;;;;;81.63;40.53;;;;;;;-145.50;100.00;65435.88;4865114;29;20553;-47
2021/06/29 05:42:23;;;;;;;74.82;39.67;;;;;;;-145.50;100.00;65435.88;4871194;29;20152;-49
2021/06/29 05:44:49;;;;;;;76.00;39.05;;;;;;;-145.50;100.00;65435.88;4867003;29;20140;-49
2021/06/29 05:47:20;;;;;;;74.85;39.28;;;;;;;-145.50;100.00;65435.88;4871417;29;20143;-48
2021/06/29 05:49:48;;;;;;;69.40;37.20;;;;;;;-145.50;100.00;65435.88;4871658;29;20151;-49
2021/06/29 05:52:15;;;;;;;71.10;37.67;;;;;;;-145.50;100.00;65435.88;4874531;29;20060;-48
2021/06/29 05:54:44;;;;;;;73.95;38.15;;;;;;;-145.50;100.00;65435.88;4870845;29;20179;-50
2021/06/29 05:57:14;;;;;;;72.25;38.58;;;;;;;-145.50;100.00;65435.88;4875671;29;20135;-51
2021/06/29 05:59:41;;;;;;;82.18;38.38;;;;;;;-145.50;100.00;65435.88;4887799;29;20387;-49
2021/06/29 06:02:09;;;;;;;76.30;37.10;;;;;;;-145.50;100.00;65435.88;4871281;29;20211;-50
2021/06/29 06:04:36;;;;;;;74.05;37.40;;;;;;;-145.50;100.00;65435.88;4877679;29;20326;-50
2021/06/29 06:07:03;;;;;;;86.22;40.00;;;;;;;-145.50;100.00;65435.88;4865526;29;20128;-49
2021/06/29 06:09:30;;;;;;;86.97;39.88;;;;;;;-145.50;100.00;65435.88;4873323;29;20561;-48
2021/06/29 06:11:57;;;;;;;79.65;38.63;;;;;;;-145.50;100.00;65435.88;4870431;29;20156;-49
2021/06/29 06:14:24;;;;;;;77.22;37.25;;;;;;;-145.50;100.00;65435.88;4878164;29;20087;-49
2021/06/29 06:16:50;;;;;;;79.60;38.40;;;;;;;-145.50;100.00;65435.88;4886557;29;20147;-49
2021/06/29 06:19:17;;;;;;;78.95;37.67;;;;;;;-145.50;100.00;65435.88;4874029;29;20148;-49
2021/06/29 06:21:43;;;;;;;84.55;39.92;;;;;;;-145.50;100.00;65435.88;4889004;29;20501;-50
2021/06/29 06:24:10;;;;;;;89.90;41.42;;;;;;;-145.50;100.00;65435.88;4881768;29;20066;-48
2021/06/29 06:26:37;;;;;;;92.00;41.50;;;;;;;-145.50;100.00;65435.88;4889090;29;20159;-48
2021/06/29 06:29:03;;;;;;;88.20;41.03;;;;;;;-145.50;100.00;65435.88;4896099;29;20098;-49
2021/06/29 06:31:30;;;;;;;110.35;46.13;;;;;;;-145.50;100.00;65435.88;4868231;29;20143;-49
2021/06/29 06:33:57;;;;;;;94.65;44.20;;;;;;;-145.50;100.00;65435.88;4883899;29;20053;-48
2021/06/29 06:36:24;;;;;;;98.28;45.38;;;;;;;-145.50;100.00;65435.88;4875207;29;20067;-49
2021/06/29 06:38:50;;;;;;;101.05;46.03;;;;;;;-145.50;100.00;65435.88;4875755;29;20175;-49
2021/06/29 06:41:17;;;;;;;101.95;47.40;;;;;;;-145.50;100.00;65435.88;4869292;29;20148;-48
2021/06/29 06:43:44;;;;;;;102.63;46.50;;;;;;;-145.50;100.00;65435.88;4880897;29;20151;-49
2021/06/29 06:46:11;;;;;;;106.00;45.73;;;;;;;-145.50;100.00;65435.88;4888243;29;20079;-48
2021/06/29 06:48:38;;;;;;;99.53;45.43;;;;;;;-145.50;100.00;65435.88;4873982;29;20059;-49
2021/06/29 06:51:06;;;;;;;100.97;47.33;;;;;;;-145.50;100.00;65435.88;4874332;29;20060;-49
2021/06/29 06:53:32;;;;;;;105.75;47.67;;;;;;;-145.50;100.00;65435.88;4881960;29;20160;-49
2021/06/29 06:55:59;;;;;;;117.63;48.25;;;;;;;-145.50;100.00;65435.88;4890746;29;20180;-48
2021/06/29 06:58:26;;;;;;;107.50;49.05;;;;;;;-145.50;100.00;65435.88;4889048;29;20143;-49
2021/06/29 07:00:53;;;;;;;103.90;49.03;;;;;;;-145.50;100.00;65435.88;4888870;29;20135;-48
2021/06/29 07:03:21;;;;;;;99.15;47.47;;;;;;;-145.50;100.00;65435.88;4880203;29;20116;-51
2021/06/29 07:05:48;;;;;;;100.13;46.28;;;;;;;-145.50;100.00;65435.88;4885492;29;20100;-52
2021/06/29 07:08:14;;;;;;;103.88;46.78;;;;;;;-145.50;100.00;65435.88;4896116;29;20104;-49
2021/06/29 07:10:41;;;;;;;92.45;45.85;;;;;;;-145.50;100.00;65435.88;4854063;29;20579;-48
2021/06/29 07:13:10;;;;;;;89.07;44.17;;;;;;;-145.50;100.00;65435.88;4878972;29;20691;-49
2021/06/29 07:15:37;;;;;;;86.22;45.40;;;;;;;-145.50;100.00;65435.88;4886925;29;20060;-47
2021/06/29 07:18:04;;;;;;;94.63;47.70;;;;;;;-145.50;100.00;65435.88;4882502;29;20056;-50
2021/06/29 07:20:33;;;;;;;103.00;48.00;;;;;;;-145.50;100.00;65435.88;4887056;29;20091;-50
2021/06/29 07:23:00;;;;;;;93.85;47.05;;;;;;;-145.50;100.00;65435.88;4888167;29;20520;-49
2021/06/29 07:25:26;;;;;;;103.15;48.90;;;;;;;-145.50;100.00;65435.88;4886134;29;20155;-50
2021/06/29 07:27:53;;;;;;;111.47;51.05;;;;;;;-145.50;100.00;65435.88;4885331;29;20186;-53
2021/06/29 07:30:20;;;;;;;103.53;51.05;;;;;;;-145.50;100.00;65435.88;4884725;29;20474;-49
2021/06/29 07:32:46;;;;;;;97.60;48.65;;;;;;;-145.50;100.00;65435.88;4860776;29;20100;-51
2021/06/29 07:35:12;;;;;;;112.55;50.83;;;;;;;-145.50;100.00;65435.88;4887194;29;20139;-49
2021/06/29 07:37:39;;;;;;;106.78;51.72;;;;;;;-145.50;100.00;65435.88;4882912;29;20089;-50
2021/06/29 07:40:06;;;;;;;110.30;51.42;;;;;;;-145.50;100.00;65435.88;4887902;29;20060;-51
2021/06/29 07:42:34;;;;;;;110.30;52.70;;;;;;;-145.50;100.00;65435.88;4881919;29;20178;-48
2021/06/29 07:45:01;;;;;;;127.68;56.40;;;;;;;-145.50;100.00;65435.88;4884427;29;20095;-48
2021/06/29 07:47:27;;;;;;;122.93;53.22;;;;;;;-145.50;100.00;65435.88;4885457;29;20084;-47
2021/06/29 07:49:54;;;;;;;119.20;53.92;;;;;;;-145.50;100.00;65435.88;4883061;29;20148;-47
2021/06/29 07:52:21;;;;;;;127.82;55.28;;;;;;;-145.50;100.00;65435.88;4887930;29;20163;-47
2021/06/29 07:54:47;;;;;;;135.52;57.50;;;;;;;-145.50;100.00;65435.88;4883446;29;20143;-48
2021/06/29 07:57:14;;;;;;;133.68;56.90;;;;;;;-145.50;100.00;65435.88;4885861;29;20512;-48
2021/06/29 07:59:40;;;;;;;130.55;55.70;;;;;;;-145.50;100.00;65435.88;4877727;29;20143;-48
2021/06/29 08:02:07;;;;;;;135.63;57.13;;;;;;;-145.50;100.00;65435.88;4884267;29;20060;-46
2021/06/29 08:04:34;;;;;;;144.80;56.85;;;;;;;-145.50;100.00;65435.88;4886618;29;20131;-48
2021/06/29 08:07:00;;;;;;;127.55;55.97;;;;;;;-145.50;100.00;65435.88;4887063;29;20159;-48
2021/06/29 08:09:27;;;;;;;119.07;53.28;;;;;;;-145.50;100.00;65435.88;4891895;29;20104;-47
2021/06/29 08:12:05;;;;;;;115.65;51.67;;;;;;;-145.50;100.00;65435.88;4880035;29;20063;-47
2021/06/29 08:14:32;;;;;;;126.00;54.60;;;;;;;-145.50;100.00;65435.88;4893539;29;20485;-48
2021/06/29 08:16:59;;;;;;;115.60;49.72;;;;;;;-145.50;100.00;65435.88;4883923;29;20095;-47
2021/06/29 08:19:25;;;;;;;101.43;48.00;;;;;;;-145.50;100.00;65435.88;4890893;29;20099;-48
2021/06/29 08:21:52;;;;;;;97.60;45.60;;;;;;;-145.50;100.00;65435.88;4886769;29;20088;-48
2021/06/29 08:24:18;;;;;;;99.50;48.60;;;;;;;-145.50;100.00;65435.88;4893087;29;20469;-47
2021/06/29 08:26:45;;;;;;;112.97;50.72;;;;;;;-145.50;100.00;65435.88;4887821;29;20117;-47
2021/06/29 08:29:12;;;;;;;110.38;50.13;;;;;;;-145.50;100.00;65435.88;4883186;29;20810;-47
2021/06/29 08:31:39;;;;;;;118.75;51.65;;;;;;;-145.50;100.00;65435.88;4890452;29;20205;-47
2021/06/29 08:34:06;;;;;;;109.78;47.38;;;;;;;-145.50;100.00;65435.88;4886783;29;20087;-47
2021/06/29 08:36:34;;;;;;;112.70;49.55;;;;;;;-145.50;100.00;65435.88;4893738;29;20553;-47
2021/06/29 08:39:00;;;;;;;113.10;47.58;;;;;;;-145.50;100.00;65435.88;4873859;29;20056;-48
2021/06/29 08:41:27;;;;;;;129.27;52.83;;;;;;;-145.50;100.00;65435.88;4886211;29;20635;-48
2021/06/29 08:43:54;;;;;;;122.38;52.30;;;;;;;-145.50;100.00;65435.88;4884966;29;21891;-48
2021/06/29 08:46:20;;;;;;;125.10;51.55;;;;;;;-145.50;100.00;65435.88;4898257;29;20135;-48
2021/06/29 08:48:46;;;;;;;112.28;50.22;;;;;;;-145.50;100.00;65435.88;4886192;29;20077;-47
2021/06/29 08:51:14;;;;;;;111.85;50.80;;;;;;;-145.50;100.00;65435.88;4883383;29;20056;-47
2021/06/29 08:53:40;;;;;;;136.52;55.22;;;;;;;-145.50;100.00;65435.88;4886796;29;20513;-48
2021/06/29 08:56:14;;;;;;;127.77;54.33;;;;;;;-145.50;100.00;65435.88;4882089;29;20405;-49
2021/06/29 08:58:42;;;;;;;132.65;53.50;;;;;;;-145.50;100.00;65435.88;4891357;29;20870;-48
2021/06/29 09:01:09;;;;;;;138.07;57.47;;;;;;;-145.50;100.00;65435.88;4885245;29;20143;-48
2021/06/29 09:03:44;;;;;;;127.00;52.63;;;;;;;-145.50;100.00;65435.88;4890149;29;20072;-49
2021/06/29 09:06:10;;;;;;;128.80;52.47;;;;;;;-145.50;100.00;65435.88;4886471;29;20143;-48
2021/06/29 09:08:41;;;;;;;129.27;53.95;;;;;;;-145.50;100.00;65435.88;4901716;29;20070;-49
2021/06/29 09:11:15;;;;;;;136.35;58.10;;;;;;;-145.50;100.00;65435.88;4890153;29;20202;-48
2021/06/29 09:14:02;;;;;;;127.72;55.90;;;;;;;-145.50;100.00;65435.88;4883850;29;20056;-49
2021/06/29 09:16:29;;;;;;;134.13;55.63;;;;;;;-145.50;100.00;65435.88;4887135;29;20126;-48
2021/06/29 09:18:56;;;;;;;127.70;56.85;;;;;;;-145.50;100.00;65435.88;4887178;29;20071;-47
2021/06/29 09:21:24;;;;;;;142.52;61.47;;;;;;;-145.50;100.00;65435.88;4891413;29;20088;-48
2021/06/29 09:23:51;;;;;;;148.82;60.33;;;;;;;-145.50;100.00;65435.88;4886160;29;20060;-50
2021/06/29 09:26:23;;;;;;;144.30;59.90;;;;;;;-145.50;100.00;65435.88;4890826;29;20155;-50
2021/06/29 09:28:58;;;;;;;146.88;61.30;;;;;;;-145.50;100.00;65435.88;4883161;29;20638;-47
2021/06/29 09:31:35;;;;;;;135.32;57.35;;;;;;;-145.50;100.00;65435.88;4888946;29;20052;-47
2021/06/29 09:34:03;;;;;;;;;;;;;;;-145.50;100.00;65435.88;4884592;29;20052;-47
2021/06/29 09:36:32;;;;;;;148.48;59.60;;;;;;;-145.50;100.00;65435.88;4887588;29;20049;-49
2021/06/29 09:39:03;;;;;;;147.45;63.10;;;;;;;-145.50;100.00;65435.88;4888600;29;20123;-51
2021/06/29 09:41:32;;;;;;;156.40;65.45;;;;;;;-145.50;100.00;65435.88;4883119;29;20159;-50
2021/06/29 09:44:06;;;;;;;139.88;61.10;;;;;;;-145.50;100.00;65435.88;4888267;29;20136;-49
2021/06/29 09:46:37;;;;;;;141.82;59.40;;;;;;;-145.50;100.00;65435.88;4881334;29;20163;-49
2021/06/29 09:49:14;;;;;;;134.73;62.97;;;;;;;-145.50;100.00;65435.88;4890154;29;20135;-49
2021/06/29 09:51:53;;;;;;;139.25;62.78;;;;;;;-145.50;100.00;65435.88;4885223;29;20061;-49
2021/06/29 09:54:21;;;;;;;129.40;58.97;;;;;;;-145.50;100.00;65435.88;4890147;29;20053;-50
2021/06/29 09:56:48;;;;;;;127.28;59.17;;;;;;;-145.50;100.00;65435.88;4883393;29;20424;-48
2021/06/29 09:59:25;;;;;;;130.25;60.67;;;;;;;-145.50;100.00;65435.88;4883969;29;20090;-51
2021/06/29 10:02:06;;;;;;;131.98;61.92;;;;;;;-145.50;100.00;65435.88;4891529;29;20052;-49
2021/06/29 10:04:33;;;;;;;124.85;57.78;;;;;;;-145.50;100.00;65435.88;4888930;29;20823;-50
2021/06/29 10:07:13;;;;;;;129.48;60.13;;;;;;;-145.50;100.00;65435.88;4889609;29;20171;-50
2021/06/29 10:09:39;;;;;;;129.30;59.17;;;;;;;-145.50;100.00;65435.88;4881777;29;20488;-50
2021/06/29 10:12:07;;;;;;;134.52;61.17;;;;;;;-145.50;100.00;65435.88;4883353;29;20098;-49
2021/06/29 10:14:34;;;;;;;125.87;59.10;;;;;;;-145.50;100.00;65435.88;4883565;29;20143;-50
2021/06/29 10:17:04;;;;;;;128.57;56.95;;;;;;;-145.50;100.00;65435.88;4889400;29;20334;-50
2021/06/29 10:22:04;;;;;;;118.72;57.35;;;;;;;-145.50;100.00;65435.88;4888916;29;20062;-49
2021/06/29 10:24:36;;;;;;;128.77;59.95;;;;;;;-145.50;100.00;65435.88;4878985;29;20145;-49
2021/06/29 10:27:06;;;;;;;127.90;58.95;;;;;;;-145.50;100.00;65435.88;4875242;29;20084;-50
2021/06/29 10:29:33;;;;;;;127.72;61.00;;;;;;;-145.50;100.00;65435.88;4889220;29;20052;-49
2021/06/29 10:32:07;;;;;;;124.20;58.30;;;;;;;-145.50;100.00;65435.88;4880944;29;20056;-49
2021/06/29 10:34:34;;;;;;;116.18;55.13;;;;;;;-145.50;100.00;65435.88;4888655;29;20083;-49
2021/06/29 10:37:01;;;;;;;122.90;58.60;;;;;;;-145.50;100.00;65435.88;4876605;29;20111;-49
2021/06/29 10:39:30;;;;;;;127.75;58.08;;;;;;;-145.50;100.00;65435.88;4892462;29;20091;-49
2021/06/29 10:42:14;;;;;;;121.45;56.85;;;;;;;-145.50;100.00;65435.88;4879978;29;20815;-49
2021/06/29 10:44:51;;;;;;;129.27;58.35;;;;;;;-145.50;100.00;65435.88;4886830;29;20474;-49
2021/06/29 10:47:24;;;;;;;131.30;59.33;;;;;;;-145.50;100.00;65435.88;4887125;29;20153;-49
2021/06/29 10:49:53;;;;;;;134.68;65.25;;;;;;;-145.50;100.00;65435.88;4888566;29;20395;-49
2021/06/29 10:52:22;;;;;;;144.35;65.45;;;;;;;-145.50;100.00;65435.88;4884515;29;20084;-49
2021/06/29 10:55:03;;;;;;;136.15;59.72;;;;;;;-145.50;100.00;65435.88;4885401;29;20059;-50
2021/06/29 10:57:38;;;;;;;114.50;55.05;;;;;;;-145.50;100.00;65435.88;4888880;29;20457;-50
2021/06/29 11:00:20;;;;;;;102.18;50.65;;;;;;;-145.50;100.00;65435.88;4872867;29;20531;-48
2021/06/29 11:02:56;;;;;;;108.70;54.65;;;;;;;-145.50;100.00;65435.88;4889028;29;20147;-50
2021/06/29 11:05:48;;;;;;;109.53;52.58;;;;;;;-145.50;100.00;65435.88;4882855;29;20057;-49